createdAt,value
2018-07-03T00:02:18.133Z,1.07
2018-07-03T00:04:55.223Z,1.33
2018-07-03T00:07:34.317Z,1.50
2018-07-03T00:10:11.367Z,1.07
2018-07-03T00:12:51.442Z,1.50
2018-07-03T00:15:29.508Z,1.90
2018-07-03T00:18:06.427Z,1.40
2018-07-03T00:20:43.207Z,1.30
2018-07-03T00:23:21.478Z,1.10
2018-07-03T00:25:59.428Z,1.20
2018-07-03T00:28:39.757Z,1.10
2018-07-03T00:31:16.941Z,1.07
2018-07-03T00:33:52.960Z,1.27
2018-07-03T00:36:29.400Z,1.23
2018-07-03T00:39:09.305Z,1.07
2018-07-03T00:41:45.208Z,2.10
2018-07-03T00:44:22.833Z,1.00
2018-07-03T00:47:00.291Z,1.10
2018-07-03T00:49:36.843Z,1.17
2018-07-03T00:52:13.732Z,1.30
2018-07-03T00:54:50.538Z,1.57
2018-07-03T00:57:27.387Z,1.20
2018-07-03T01:00:19.951Z,1.40
2018-07-03T01:02:57.444Z,1.22
2018-07-03T01:05:34.468Z,1.50
2018-07-03T01:08:10.624Z,1.10
2018-07-03T01:10:48.298Z,1.40
2018-07-03T01:13:26.296Z,1.30
2018-07-03T01:16:03.339Z,1.40
2018-07-03T01:18:40.020Z,1.30
2018-07-03T01:21:18.016Z,1.40
2018-07-03T01:23:54.347Z,1.60
2018-07-03T01:26:31.376Z,1.27
2018-07-03T01:29:09.224Z,1.20
2018-07-03T01:31:45.954Z,1.30
2018-07-03T01:34:23.224Z,1.40
2018-07-03T01:36:59.276Z,1.63
2018-07-03T01:39:37.804Z,1.33
2018-07-03T01:42:15.517Z,1.30
2018-07-03T01:44:52.311Z,1.40
2018-07-03T01:47:29.016Z,1.70
2018-07-03T01:50:06.033Z,1.40
2018-07-03T01:52:44.743Z,1.10
2018-07-03T01:55:21.466Z,1.35
2018-07-03T01:57:58.728Z,1.57
2018-07-03T02:00:35.696Z,1.60
2018-07-03T02:03:12.384Z,1.30
2018-07-03T02:05:48.527Z,1.57
2018-07-03T02:08:24.296Z,1.37
2018-07-03T02:11:01.092Z,1.02
2018-07-03T02:13:38.740Z,1.55
2018-07-03T02:16:15.865Z,1.22
2018-07-03T02:18:53.487Z,1.50
2018-07-03T02:21:30.393Z,1.70
2018-07-03T02:24:06.937Z,1.50
2018-07-03T02:26:43.349Z,1.60
2018-07-03T02:29:19.743Z,1.40
2018-07-03T02:31:57.068Z,1.80
2018-07-03T02:34:33.544Z,1.70
2018-07-03T02:37:10.124Z,1.25
2018-07-03T02:39:49.131Z,1.50
2018-07-03T02:42:26.592Z,1.70
2018-07-03T02:45:03.592Z,1.43
2018-07-03T02:47:41.043Z,1.80
2018-07-03T02:50:18.258Z,1.47
2018-07-03T02:52:55.307Z,1.60
2018-07-03T02:55:33.590Z,1.40
2018-07-03T02:58:11.708Z,1.90
2018-07-03T03:00:49.916Z,1.85
2018-07-03T03:03:27.189Z,1.50
2018-07-03T03:06:03.735Z,1.90
2018-07-03T03:08:41.606Z,1.80
2018-07-03T03:11:23.276Z,1.53
2018-07-03T03:14:01.059Z,1.75
2018-07-03T03:16:39.405Z,1.80
2018-07-03T03:19:16.438Z,1.70
2018-07-03T03:21:52.923Z,1.60
2018-07-03T03:24:29.736Z,1.65
2018-07-03T03:27:06.552Z,1.55
2018-07-03T03:29:43.173Z,1.77
2018-07-03T03:32:19.512Z,1.57
2018-07-03T03:34:56.505Z,1.55
2018-07-03T03:37:35.015Z,1.62
2018-07-03T03:40:11.393Z,1.53
2018-07-03T03:42:48.120Z,1.80
2018-07-03T03:45:26.648Z,1.75
2018-07-03T03:48:04.524Z,2.00
2018-07-03T03:50:41.311Z,2.08
2018-07-03T03:53:18.001Z,2.12
2018-07-03T03:55:56.386Z,2.40
2018-07-03T03:58:34.378Z,1.95
2018-07-03T04:01:12.310Z,2.50
2018-07-03T04:03:49.650Z,2.12
2018-07-03T04:06:27.653Z,2.08
2018-07-03T04:09:06.549Z,2.20
2018-07-03T04:11:42.449Z,2.00
2018-07-03T04:14:18.618Z,2.00
2018-07-03T04:16:55.539Z,1.95
2018-07-03T04:19:32.530Z,2.17
2018-07-03T04:22:10.643Z,2.30
2018-07-03T04:24:47.604Z,2.47
2018-07-03T04:27:25.343Z,2.08
2018-07-03T04:30:03.584Z,2.00
2018-07-03T04:32:40.844Z,2.30
2018-07-03T04:35:18.594Z,2.20
2018-07-03T04:37:55.472Z,2.17
2018-07-03T04:40:33.648Z,2.37
2018-07-03T04:43:10.305Z,1.90
2018-07-03T04:45:50.397Z,2.30
2018-07-03T04:48:28.988Z,2.25
2018-07-03T04:51:06.666Z,2.55
2018-07-03T04:53:42.729Z,1.93
2018-07-03T04:56:21.049Z,1.63
2018-07-03T04:58:57.781Z,1.90
2018-07-03T05:01:35.869Z,2.33
2018-07-03T05:04:13.388Z,2.00
2018-07-03T05:06:51.058Z,2.53
2018-07-03T05:09:28.688Z,2.30
2018-07-03T05:12:06.674Z,2.20
2018-07-03T05:14:45.109Z,2.87
2018-07-03T05:17:22.068Z,2.00
2018-07-03T05:19:59.101Z,2.17
2018-07-03T05:22:37.496Z,2.20
2018-07-03T05:25:13.984Z,1.70
2018-07-03T05:27:50.541Z,2.37
2018-07-03T05:30:27.269Z,2.60
2018-07-03T05:33:04.520Z,2.10
2018-07-03T05:35:42.720Z,2.63
2018-07-03T05:38:21.060Z,2.10
2018-07-03T05:41:00.090Z,2.53
2018-07-03T05:43:36.945Z,2.60
2018-07-03T05:46:13.792Z,2.07
2018-07-03T05:48:51.620Z,2.53
2018-07-03T05:51:27.503Z,2.53
2018-07-03T05:54:06.751Z,2.00
2018-07-03T05:56:43.408Z,2.10
2018-07-03T05:59:20.117Z,2.27
2018-07-03T06:01:57.507Z,2.73
2018-07-03T06:04:35.280Z,2.10
2018-07-03T06:07:12.614Z,2.70
2018-07-03T06:09:50.292Z,2.50
2018-07-03T06:12:26.916Z,2.73
2018-07-03T06:15:05.868Z,2.50
2018-07-03T06:17:42.260Z,2.80
2018-07-03T06:20:18.543Z,2.60
2018-07-03T06:22:55.656Z,2.37
2018-07-03T06:25:32.416Z,2.80
2018-07-03T06:28:08.417Z,2.60
2018-07-03T06:30:45.967Z,3.37
2018-07-03T06:33:22.509Z,2.63
2018-07-03T06:36:00.453Z,2.83
2018-07-03T06:38:38.088Z,2.30
2018-07-03T06:41:16.298Z,2.77
2018-07-03T06:43:54.436Z,2.80
2018-07-03T06:46:31.842Z,2.40
2018-07-03T06:49:09.461Z,2.67
2018-07-03T06:51:47.855Z,2.20
2018-07-03T06:54:25.864Z,2.20
2018-07-03T06:57:03.072Z,1.70
2018-07-03T06:59:40.410Z,1.87
2018-07-03T07:02:17.561Z,2.40
2018-07-03T07:04:54.971Z,1.70
2018-07-03T07:07:32.711Z,1.63
2018-07-03T07:10:09.676Z,1.80
2018-07-03T07:12:47.364Z,1.60
2018-07-03T07:15:23.724Z,1.40
2018-07-03T07:18:00.201Z,1.80
2018-07-03T07:20:37.085Z,1.43
2018-07-03T07:23:15.307Z,1.50
2018-07-03T07:25:52.472Z,1.40
2018-07-03T07:28:30.228Z,1.27
2018-07-03T07:31:08.581Z,1.43
2018-07-03T07:33:45.346Z,0.90
2018-07-03T07:36:21.669Z,1.10
2018-07-03T07:38:57.901Z,1.07
2018-07-03T07:41:36.080Z,1.10
2018-07-03T07:44:13.191Z,1.30
2018-07-03T07:46:50.221Z,1.50
2018-07-03T07:49:27.962Z,1.00
2018-07-03T07:52:05.054Z,1.10
2018-07-03T07:54:43.136Z,1.07
2018-07-03T07:57:21.681Z,1.00
2018-07-03T07:59:58.542Z,1.10
2018-07-03T08:02:36.403Z,1.00
2018-07-03T08:05:14.438Z,1.80
2018-07-03T08:07:51.700Z,0.70
2018-07-03T08:10:29.388Z,1.03
2018-07-03T08:13:07.626Z,0.80
2018-07-03T08:15:44.820Z,0.70
2018-07-03T08:18:22.541Z,0.77
2018-07-03T08:20:59.689Z,0.67
2018-07-03T08:23:37.844Z,0.90
2018-07-03T08:26:15.131Z,0.87
2018-07-03T08:28:51.357Z,0.80
2018-07-03T08:31:28.786Z,0.90
2018-07-03T08:34:06.494Z,0.90
2018-07-03T08:36:43.512Z,0.80
2018-07-03T08:39:20.908Z,1.00
2018-07-03T08:41:58.390Z,0.90
2018-07-03T08:44:35.692Z,0.80
2018-07-03T08:47:13.720Z,0.87
2018-07-03T08:49:51.888Z,1.00
2018-07-03T08:52:28.545Z,1.17
2018-07-03T08:55:05.907Z,0.97
2018-07-03T08:57:43.845Z,1.00
2018-07-03T09:00:20.954Z,0.97
2018-07-03T09:02:58.688Z,0.90
2018-07-03T09:05:35.916Z,0.90
2018-07-03T09:08:13.923Z,1.03
2018-07-03T09:10:52.414Z,1.00
2018-07-03T09:13:30.344Z,1.00
2018-07-03T09:16:07.525Z,0.90
2018-07-03T09:18:44.466Z,1.00
2018-07-03T09:21:21.633Z,0.90
2018-07-03T09:23:58.257Z,1.10
2018-07-03T09:26:35.199Z,1.10
2018-07-03T09:29:12.162Z,1.23
2018-07-03T09:31:49.208Z,0.87
2018-07-03T09:34:27.256Z,1.00
2018-07-03T09:37:06.705Z,1.03
2018-07-03T09:39:44.989Z,0.90
2018-07-03T09:42:22.477Z,0.73
2018-07-03T09:44:59.973Z,1.20
2018-07-03T09:47:38.244Z,1.10
2018-07-03T09:50:15.360Z,1.13
2018-07-03T09:52:52.858Z,1.20
2018-07-03T09:55:28.956Z,1.00
2018-07-03T09:58:06.632Z,1.10
2018-07-03T10:00:49.313Z,1.17
2018-07-03T10:03:28.236Z,1.07
2018-07-03T10:06:06.248Z,1.10
2018-07-03T10:08:43.836Z,1.00
2018-07-03T10:11:21.834Z,1.07
2018-07-03T10:14:00.994Z,1.10
2018-07-03T10:16:38.849Z,1.20
2018-07-03T10:19:15.670Z,1.23
2018-07-03T10:21:53.149Z,0.80
2018-07-03T10:24:30.748Z,1.10
2018-07-03T10:27:08.470Z,0.90
2018-07-03T10:29:45.548Z,1.10
2018-07-03T10:32:22.384Z,0.90
2018-07-03T10:35:00.890Z,1.20
2018-07-03T10:37:38.845Z,1.20
2018-07-03T10:40:16.105Z,1.23
2018-07-03T10:42:52.852Z,1.47
2018-07-03T10:45:31.446Z,1.20
2018-07-03T10:48:07.823Z,0.93
2018-07-03T10:50:45.043Z,1.20
2018-07-03T10:53:22.612Z,1.20
2018-07-03T10:55:59.723Z,1.30
2018-07-03T10:58:37.571Z,0.93
2018-07-03T11:01:16.083Z,1.20
2018-07-03T11:03:56.418Z,1.10
2018-07-03T11:06:33.732Z,1.10
2018-07-03T11:09:12.596Z,1.00
2018-07-03T11:11:50.455Z,0.97
2018-07-03T11:14:27.185Z,1.00
2018-07-03T11:17:03.318Z,0.70
2018-07-03T11:19:42.393Z,0.93
2018-07-03T11:22:19.721Z,0.90
2018-07-03T11:24:58.860Z,1.20
2018-07-03T11:27:36.687Z,1.03
2018-07-03T11:30:14.712Z,1.10
2018-07-03T11:32:52.274Z,1.10
2018-07-03T11:35:30.898Z,0.97
2018-07-03T11:38:09.993Z,1.00
2018-07-03T11:40:46.381Z,0.90
2018-07-03T11:43:23.369Z,1.20
2018-07-03T11:46:01.199Z,0.97
2018-07-03T11:48:39.052Z,1.13
2018-07-03T11:51:17.022Z,1.03
2018-07-03T11:53:53.616Z,0.90
2018-07-03T11:56:30.311Z,0.97
2018-07-03T11:59:09.005Z,1.00
2018-07-03T12:01:46.381Z,1.10
2018-07-03T12:04:23.756Z,0.90
2018-07-03T12:07:01.630Z,0.90
2018-07-03T12:09:40.121Z,1.20
2018-07-03T12:12:18.110Z,0.93
2018-07-03T12:14:54.457Z,1.10
2018-07-03T12:17:32.296Z,1.00
2018-07-03T12:20:10.692Z,0.97
2018-07-03T12:22:47.793Z,1.00
2018-07-03T12:25:25.500Z,0.90
2018-07-03T12:28:03.484Z,1.10
2018-07-03T12:30:40.100Z,0.90
2018-07-03T12:33:18.940Z,0.93
2018-07-03T12:35:56.703Z,1.03
2018-07-03T12:38:33.654Z,1.10
2018-07-03T12:41:11.505Z,1.20
2018-07-03T12:43:47.873Z,1.30
2018-07-03T12:46:25.003Z,1.10
2018-07-03T12:49:01.986Z,1.00
2018-07-03T12:51:39.630Z,0.83
2018-07-03T12:54:16.124Z,1.00
2018-07-03T12:56:55.554Z,0.93
2018-07-03T12:59:33.968Z,1.37
2018-07-03T13:02:10.846Z,1.00
2018-07-03T13:04:51.018Z,1.00
2018-07-03T13:07:28.484Z,0.90
2018-07-03T13:10:05.626Z,0.90
2018-07-03T13:12:42.684Z,1.00
2018-07-03T13:15:20.193Z,0.80
2018-07-03T13:18:02.629Z,1.27
2018-07-03T13:20:40.104Z,0.90
2018-07-03T13:23:19.068Z,1.20
2018-07-03T13:25:57.413Z,0.90
2018-07-03T13:28:34.550Z,1.00
2018-07-03T13:31:12.079Z,1.03
2018-07-03T13:33:48.846Z,1.20
2018-07-03T13:36:26.461Z,1.10
2018-07-03T13:39:06.340Z,1.33
2018-07-03T13:41:44.121Z,1.17
2018-07-03T13:44:21.680Z,0.90
2018-07-03T13:47:00.373Z,1.17
2018-07-03T13:49:36.606Z,1.30
2018-07-03T13:52:13.969Z,1.00
2018-07-03T13:54:50.667Z,1.00
2018-07-03T13:57:28.790Z,1.00
2018-07-03T14:00:07.276Z,0.90
2018-07-03T14:02:44.383Z,1.00
2018-07-03T14:05:21.630Z,1.10
2018-07-03T14:07:59.589Z,1.07
2018-07-03T14:10:36.439Z,1.03
2018-07-03T14:13:13.406Z,1.20
2018-07-03T14:15:51.252Z,1.20
2018-07-03T14:18:29.108Z,1.00
2018-07-03T14:21:05.932Z,0.97
2018-07-03T14:23:42.675Z,1.17
2018-07-03T14:26:20.014Z,1.20
2018-07-03T14:28:56.726Z,1.10
2018-07-03T14:31:36.131Z,1.10
2018-07-03T14:34:13.880Z,1.23
2018-07-03T14:36:50.131Z,1.03
2018-07-03T14:39:26.227Z,1.20
2018-07-03T14:42:03.865Z,1.10
2018-07-03T14:44:41.230Z,1.17
2018-07-03T14:47:20.245Z,1.43
2018-07-03T14:49:58.094Z,1.23
2018-07-03T14:52:35.464Z,1.00
2018-07-03T14:55:12.266Z,1.33
2018-07-03T14:57:50.065Z,1.10
2018-07-03T15:00:28.301Z,1.50
2018-07-03T15:03:06.468Z,1.10
2018-07-03T15:05:43.229Z,1.33
2018-07-03T15:08:20.508Z,1.50
2018-07-03T15:10:58.310Z,1.33
2018-07-03T15:13:35.582Z,1.33
2018-07-03T15:16:11.730Z,1.50
2018-07-03T15:18:54.709Z,1.30
2018-07-03T15:21:33.096Z,1.40
2018-07-03T15:24:11.448Z,1.67
2018-07-03T15:26:48.925Z,1.77
2018-07-03T15:29:27.030Z,1.70
2018-07-03T15:32:03.929Z,1.63
2018-07-03T15:34:40.580Z,1.53
2018-07-03T15:37:19.030Z,1.53
2018-07-03T15:39:56.227Z,1.23
2018-07-03T15:42:33.280Z,1.60
2018-07-03T15:45:13.447Z,1.40
2018-07-03T15:47:49.288Z,1.57
2018-07-03T15:50:26.589Z,1.47
2018-07-03T15:53:04.692Z,1.40
2018-07-03T15:55:42.363Z,1.33
2018-07-03T15:58:19.574Z,1.40
2018-07-03T16:00:57.100Z,1.43
2018-07-03T16:04:15.525Z,1.53
2018-07-03T16:07:11.961Z,1.03
2018-07-03T16:09:48.200Z,1.63
2018-07-03T16:12:27.481Z,1.50
2018-07-03T16:15:04.194Z,1.50
2018-07-03T16:17:40.733Z,1.47
2018-07-03T16:20:25.270Z,1.57
2018-07-03T16:23:03.789Z,1.30
2018-07-03T16:25:41.292Z,1.27
2018-07-03T16:28:18.369Z,1.10
2018-07-03T16:30:54.403Z,1.40
2018-07-03T16:33:31.409Z,1.00
2018-07-03T16:36:10.131Z,1.10
2018-07-03T16:38:48.554Z,1.63
2018-07-03T16:41:26.409Z,1.37
2018-07-03T16:44:02.373Z,1.40
2018-07-03T16:46:40.583Z,1.30
2018-07-03T16:49:18.960Z,1.43
2018-07-03T16:51:55.907Z,1.70
2018-07-03T16:54:32.720Z,1.20
2018-07-03T16:57:09.680Z,1.60
2018-07-03T16:59:46.424Z,1.43
2018-07-03T17:02:25.396Z,1.10
2018-07-03T17:05:03.460Z,1.40
2018-07-03T17:07:40.469Z,1.60
2018-07-03T17:10:18.064Z,1.53
2018-07-03T17:12:56.742Z,1.50
2018-07-03T17:15:33.756Z,2.50
2018-07-03T17:18:11.804Z,1.70
2018-07-03T17:20:47.939Z,1.93
2018-07-03T17:23:25.492Z,1.70
2018-07-03T17:26:03.313Z,1.80
2018-07-03T17:28:40.574Z,1.60
2018-07-03T17:31:17.912Z,1.60
2018-07-03T17:33:56.931Z,1.63
2018-07-03T17:36:34.102Z,1.53
2018-07-03T17:39:14.527Z,1.40
2018-07-03T17:44:14.272Z,1.40
2018-07-03T17:46:51.764Z,1.57
2018-07-03T17:49:29.272Z,1.50
2018-07-03T17:52:06.720Z,1.33
2018-07-03T17:54:46.475Z,1.60
2018-07-03T17:57:25.127Z,1.53
2018-07-03T18:00:02.800Z,1.20
2018-07-03T18:02:39.213Z,1.40
2018-07-03T18:05:16.481Z,1.40
2018-07-03T18:07:53.713Z,1.10
2018-07-03T18:10:30.521Z,1.43
2018-07-03T18:13:08.416Z,1.87
2018-07-03T18:15:45.607Z,1.50
2018-07-03T18:18:21.814Z,1.70
2018-07-03T18:20:58.777Z,1.30
2018-07-03T18:23:35.957Z,1.67
2018-07-03T18:26:14.054Z,1.63
2018-07-03T18:28:50.511Z,2.10
2018-07-03T18:31:27.413Z,2.20
2018-07-03T18:34:05.256Z,2.20
2018-07-03T18:36:41.244Z,2.40
2018-07-03T18:39:17.432Z,1.70
2018-07-03T18:41:55.166Z,3.43
2018-07-03T18:44:31.424Z,2.00
2018-07-03T18:47:08.826Z,2.17
2018-07-03T18:49:47.457Z,2.20
2018-07-03T18:52:23.838Z,1.90
2018-07-03T18:55:00.996Z,2.47
2018-07-03T18:57:37.184Z,2.33
2018-07-03T19:00:13.717Z,2.87
2018-07-03T19:02:50.196Z,2.93
2018-07-03T19:05:27.716Z,3.13
2018-07-03T19:08:05.748Z,3.10
2018-07-03T19:10:42.537Z,2.03
2018-07-03T19:13:21.557Z,1.57
2018-07-03T19:15:58.293Z,1.70
2018-07-03T19:18:36.290Z,1.97
2018-07-03T19:21:15.021Z,1.47
2018-07-03T19:23:53.017Z,1.67
2018-07-03T19:26:30.947Z,1.90
2018-07-03T19:29:10.158Z,1.50
2018-07-03T19:31:50.141Z,1.50
2018-07-03T19:34:27.781Z,1.60
2018-07-03T19:37:05.164Z,1.60
2018-07-03T19:39:43.006Z,1.77
2018-07-03T19:42:20.665Z,1.70
2018-07-03T19:44:58.497Z,1.53
2018-07-03T19:47:36.215Z,2.00
2018-07-03T19:50:13.168Z,1.73
2018-07-03T19:52:50.264Z,1.60
2018-07-03T19:55:27.505Z,1.50
2018-07-03T19:58:03.987Z,1.50
2018-07-03T20:00:43.009Z,1.90
2018-07-03T20:03:22.873Z,1.40
2018-07-03T20:06:00.557Z,2.03
2018-07-03T20:08:36.996Z,1.60
2018-07-03T20:11:15.727Z,1.50
2018-07-03T20:13:54.705Z,1.73
2018-07-03T20:16:31.928Z,1.73
2018-07-03T20:19:13.145Z,1.90
2018-07-03T20:21:50.380Z,2.00
2018-07-03T20:24:28.320Z,2.37
2018-07-03T20:27:05.732Z,2.07
2018-07-03T20:29:42.669Z,2.10
2018-07-03T20:32:18.330Z,2.37
2018-07-03T20:34:54.562Z,2.40
2018-07-03T20:37:42.497Z,2.57
2018-07-03T20:40:21.078Z,2.13
2018-07-03T20:42:59.078Z,1.80
2018-07-03T20:45:36.485Z,1.67
2018-07-03T20:48:12.938Z,2.00
2018-07-03T20:50:49.761Z,1.93
2018-07-03T20:53:27.513Z,1.80
2018-07-03T20:56:06.888Z,2.03
2018-07-03T20:58:44.679Z,1.87
2018-07-03T21:01:22.098Z,1.80
2018-07-03T21:03:58.974Z,1.90
2018-07-03T21:06:35.756Z,1.80
2018-07-03T21:09:12.050Z,1.73
2018-07-03T21:11:49.618Z,1.90
2018-07-03T21:14:27.581Z,1.60
2018-07-03T21:17:05.420Z,1.67
2018-07-03T21:19:42.546Z,1.80
2018-07-03T21:22:20.184Z,2.10
2018-07-03T21:24:58.032Z,1.73
2018-07-03T21:27:35.837Z,1.83
2018-07-03T21:30:12.895Z,2.27
2018-07-03T21:32:51.163Z,1.93
2018-07-03T21:35:28.924Z,2.10
2018-07-03T21:38:08.281Z,2.10
2018-07-03T21:40:44.444Z,1.70
2018-07-03T21:43:21.921Z,2.20
2018-07-03T21:45:58.766Z,2.00
2018-07-03T21:48:35.603Z,2.00
2018-07-03T21:51:12.648Z,1.83
2018-07-03T21:53:50.426Z,2.20
2018-07-03T21:56:27.723Z,2.00
2018-07-03T21:59:04.442Z,1.70
2018-07-03T22:01:41.585Z,1.73
2018-07-03T22:04:19.744Z,1.90
2018-07-03T22:06:56.049Z,1.80
2018-07-03T22:09:32.973Z,2.27
2018-07-03T22:12:10.857Z,2.40
2018-07-03T22:14:46.304Z,2.20
2018-07-03T22:17:22.725Z,2.10
2018-07-03T22:19:59.784Z,2.00
2018-07-03T22:22:37.268Z,2.37
2018-07-03T22:25:14.223Z,1.83
2018-07-03T22:27:51.666Z,1.90
2018-07-03T22:30:27.240Z,1.90
2018-07-03T22:33:03.696Z,2.03
2018-07-03T22:35:41.429Z,1.90
2018-07-03T22:38:17.620Z,1.90
2018-07-03T22:40:54.696Z,2.27
2018-07-03T22:43:32.451Z,2.00
2018-07-03T22:46:09.542Z,2.27
2018-07-03T22:48:47.617Z,1.83
2018-07-03T22:51:24.610Z,2.33
2018-07-03T22:54:01.931Z,1.80
2018-07-03T22:56:39.631Z,2.10
2018-07-03T22:59:15.856Z,2.20
2018-07-03T23:01:51.960Z,1.93
2018-07-03T23:04:30.050Z,2.07
2018-07-03T23:07:07.164Z,2.27
2018-07-03T23:09:44.571Z,2.43
2018-07-03T23:12:20.709Z,2.47
2018-07-03T23:14:56.655Z,2.10
2018-07-03T23:17:34.475Z,2.17
2018-07-03T23:20:10.924Z,2.20
2018-07-03T23:22:47.754Z,2.30
2018-07-03T23:25:24.217Z,2.07
2018-07-03T23:28:01.560Z,2.40
2018-07-03T23:30:37.820Z,2.30
2018-07-03T23:33:14.223Z,2.30
2018-07-03T23:35:51.845Z,2.37
2018-07-03T23:38:28.697Z,2.20
2018-07-03T23:41:06.805Z,2.20
2018-07-03T23:43:45.205Z,2.20
2018-07-03T23:46:38.026Z,1.93
2018-07-03T23:49:32.248Z,2.03
2018-07-03T23:52:24.952Z,1.90
2018-07-03T23:55:19.336Z,2.33
2018-07-03T23:58:13.974Z,2.37
